createdAt,value
2022-12-31T00:02:49.984Z,82.38
2022-12-31T00:05:56.201Z,81.47
2022-12-31T00:09:05.189Z,78.85
2022-12-31T00:12:11.059Z,80.00
2022-12-31T00:15:17.224Z,78.63
2022-12-31T00:18:23.058Z,78.45
2022-12-31T00:21:30.617Z,90.47
2022-12-31T00:24:36.649Z,83.28
2022-12-31T00:27:42.118Z,86.90
2022-12-31T00:30:47.551Z,85.68
2022-12-31T00:33:53.341Z,87.20
2022-12-31T00:36:58.879Z,88.22
2022-12-31T00:40:05.167Z,78.07
2022-12-31T00:43:10.844Z,76.47
2022-12-31T00:46:17.111Z,81.63
2022-12-31T00:49:22.959Z,80.97
2022-12-31T00:52:28.743Z,80.30
2022-12-31T00:55:34.505Z,88.43
2022-12-31T00:58:41.276Z,91.13
2022-12-31T01:01:47.507Z,84.03
2022-12-31T01:04:52.792Z,86.07
2022-12-31T01:07:58.433Z,87.68
2022-12-31T01:11:22.801Z,73.38
2022-12-31T01:14:28.297Z,64.97
2022-12-31T01:17:34.946Z,78.68
2022-12-31T01:20:42.760Z,73.53
2022-12-31T01:23:48.261Z,76.57
2022-12-31T01:26:58.146Z,81.72
2022-12-31T01:30:06.376Z,83.95
2022-12-31T01:33:12.137Z,76.40
2022-12-31T01:36:25.604Z,71.95
2022-12-31T01:39:32.540Z,68.32
2022-12-31T01:42:38.093Z,72.45
2022-12-31T01:45:49.845Z,67.25
2022-12-31T01:49:01.222Z,68.88
2022-12-31T01:52:16.479Z,70.32
2022-12-31T01:55:24.251Z,70.00
2022-12-31T01:58:46.594Z,70.85
2022-12-31T02:01:55.248Z,63.55
2022-12-31T02:05:02.944Z,62.55
2022-12-31T02:08:08.961Z,60.35
2022-12-31T02:11:30.547Z,64.25
2022-12-31T02:14:40.420Z,63.70
2022-12-31T02:18:23.752Z,71.32
2022-12-31T02:21:37.800Z,64.85
2022-12-31T02:25:12.404Z,73.60
2022-12-31T02:28:38.436Z,67.15
2022-12-31T02:31:58.354Z,68.28
2022-12-31T02:35:17.139Z,62.28
2022-12-31T02:38:31.534Z,71.72
2022-12-31T02:41:52.724Z,64.25
2022-12-31T02:44:58.284Z,66.63
2022-12-31T02:48:20.621Z,68.75
2022-12-31T02:51:54.541Z,67.88
2022-12-31T02:55:26.866Z,72.75
2022-12-31T02:59:00.804Z,71.90
2022-12-31T03:02:15.012Z,78.00
2022-12-31T03:05:24.576Z,73.22
2022-12-31T03:08:30.604Z,79.38
2022-12-31T03:11:54.639Z,80.13
2022-12-31T03:15:00.633Z,76.82
2022-12-31T03:18:10.865Z,77.20
2022-12-31T03:21:34.632Z,70.97
2022-12-31T03:24:58.552Z,75.30
2022-12-31T03:28:09.890Z,70.28
2022-12-31T03:31:16.519Z,74.38
2022-12-31T03:34:22.024Z,76.15
2022-12-31T03:37:27.565Z,70.38
2022-12-31T03:40:37.587Z,79.28
2022-12-31T03:43:42.880Z,75.05
2022-12-31T03:46:48.662Z,74.45
2022-12-31T03:49:54.402Z,78.10
2022-12-31T03:52:59.965Z,77.18
2022-12-31T03:56:05.995Z,72.00
2022-12-31T03:59:11.784Z,76.18
2022-12-31T04:02:19.196Z,78.55
2022-12-31T04:05:26.517Z,71.30
2022-12-31T04:08:32.158Z,79.15
2022-12-31T04:11:37.403Z,81.38
2022-12-31T04:14:42.420Z,88.75
2022-12-31T04:17:49.228Z,77.13
2022-12-31T04:20:54.744Z,81.70
2022-12-31T04:24:00.396Z,74.78
2022-12-31T04:27:08.061Z,77.47
2022-12-31T04:30:14.785Z,79.70
2022-12-31T04:33:20.646Z,81.82
2022-12-31T04:36:26.124Z,72.97
2022-12-31T04:39:32.324Z,77.38
2022-12-31T04:42:38.201Z,78.07
2022-12-31T04:45:44.103Z,73.68
2022-12-31T04:48:49.387Z,76.68
2022-12-31T04:51:54.531Z,73.28
2022-12-31T04:54:59.902Z,78.72
2022-12-31T04:58:05.225Z,87.88
2022-12-31T05:01:11.251Z,93.85
2022-12-31T05:04:16.936Z,92.22
2022-12-31T05:07:22.746Z,91.45
2022-12-31T05:10:28.455Z,88.82
2022-12-31T05:13:33.918Z,103.07
2022-12-31T05:16:39.432Z,86.95
2022-12-31T05:19:45.086Z,90.95
2022-12-31T05:22:50.941Z,98.53
2022-12-31T05:25:57.068Z,106.22
2022-12-31T05:29:02.624Z,101.93
2022-12-31T05:32:08.022Z,105.15
2022-12-31T05:35:13.503Z,108.88
2022-12-31T05:38:19.040Z,114.00
2022-12-31T05:41:24.475Z,115.60
2022-12-31T05:44:30.519Z,96.47
2022-12-31T05:47:35.362Z,99.47
2022-12-31T05:50:41.016Z,71.28
2022-12-31T05:53:47.599Z,65.97
2022-12-31T05:56:53.076Z,61.85
2022-12-31T05:59:58.754Z,70.82
2022-12-31T06:03:04.660Z,61.17
2022-12-31T06:06:09.893Z,63.55
2022-12-31T06:09:17.340Z,57.10
2022-12-31T06:12:22.530Z,60.97
2022-12-31T06:15:28.131Z,52.45
2022-12-31T06:18:33.861Z,57.65
2022-12-31T06:21:40.051Z,58.70
2022-12-31T06:24:46.007Z,64.13
2022-12-31T06:27:51.938Z,55.95
2022-12-31T06:31:05.351Z,47.90
2022-12-31T06:34:12.858Z,58.38
2022-12-31T06:37:18.593Z,60.67
2022-12-31T06:40:24.229Z,63.72
2022-12-31T06:43:29.855Z,57.92
2022-12-31T06:46:34.988Z,57.55
2022-12-31T06:49:41.215Z,61.45
2022-12-31T06:52:46.120Z,57.45
2022-12-31T06:55:51.304Z,62.28
2022-12-31T06:58:57.545Z,56.47
2022-12-31T07:02:29.967Z,64.13
2022-12-31T07:05:39.956Z,72.35
2022-12-31T07:09:01.621Z,68.25
2022-12-31T07:12:45.371Z,71.70
2022-12-31T07:16:10.367Z,69.18
2022-12-31T07:19:36.315Z,71.40
2022-12-31T07:22:45.170Z,73.50
2022-12-31T07:26:22.601Z,72.88
2022-12-31T07:30:01.187Z,77.70
2022-12-31T07:33:34.000Z,68.07
2022-12-31T07:37:17.883Z,76.55
2022-12-31T07:41:05.479Z,71.70
2022-12-31T07:44:35.713Z,76.35
2022-12-31T07:47:41.493Z,85.00
2022-12-31T07:50:47.024Z,89.63
2022-12-31T07:53:52.871Z,90.80
2022-12-31T07:56:58.418Z,91.90
2022-12-31T08:00:15.572Z,99.22
2022-12-31T08:03:25.750Z,97.35
2022-12-31T08:06:42.869Z,100.75
2022-12-31T08:10:04.234Z,92.18
2022-12-31T08:13:11.813Z,97.70
2022-12-31T08:16:17.613Z,98.07
2022-12-31T08:19:32.684Z,101.47
2022-12-31T08:22:47.220Z,109.10
2022-12-31T08:26:28.451Z,109.18
2022-12-31T08:30:09.843Z,102.82
2022-12-31T08:33:39.991Z,107.90
2022-12-31T08:37:06.485Z,92.05
2022-12-31T08:40:24.546Z,97.43
2022-12-31T08:44:10.923Z,97.40
2022-12-31T08:47:55.048Z,92.00
2022-12-31T08:51:03.791Z,95.22
2022-12-31T08:54:12.630Z,90.85
2022-12-31T08:57:59.532Z,91.80
2022-12-31T09:01:07.577Z,93.63
2022-12-31T09:04:36.280Z,100.45
2022-12-31T09:08:11.815Z,95.60
2022-12-31T09:11:28.380Z,99.05
2022-12-31T09:14:58.305Z,105.03
2022-12-31T09:18:04.256Z,94.47
2022-12-31T09:21:11.557Z,96.63
2022-12-31T09:24:17.077Z,83.82
2022-12-31T09:27:57.777Z,101.32
2022-12-31T09:31:15.933Z,106.30
2022-12-31T09:35:12.503Z,90.15
2022-12-31T09:38:54.974Z,91.43
2022-12-31T09:42:31.079Z,89.32
2022-12-31T09:46:17.606Z,87.22
2022-12-31T09:49:31.910Z,94.53
2022-12-31T09:52:56.252Z,90.90
2022-12-31T09:56:29.397Z,83.05
2022-12-31T09:59:38.008Z,82.88
2022-12-31T10:02:52.154Z,74.30
2022-12-31T10:05:57.718Z,80.85
2022-12-31T10:09:35.459Z,79.60
2022-12-31T10:13:09.126Z,83.25
2022-12-31T10:16:40.678Z,84.35
2022-12-31T10:19:53.797Z,80.50
2022-12-31T10:22:59.235Z,72.22
2022-12-31T10:26:27.183Z,89.45
2022-12-31T10:30:34.515Z,79.18
2022-12-31T10:34:00.172Z,85.10
2022-12-31T10:37:17.883Z,81.68
2022-12-31T10:40:25.758Z,78.70
2022-12-31T10:43:52.539Z,95.15
2022-12-31T10:47:29.066Z,94.05
2022-12-31T10:51:00.943Z,88.63
2022-12-31T10:54:24.721Z,92.97
2022-12-31T10:58:04.041Z,91.70
2022-12-31T11:01:15.875Z,91.93
2022-12-31T11:04:47.712Z,94.63
2022-12-31T11:07:59.128Z,99.78
2022-12-31T11:11:22.865Z,97.97
2022-12-31T11:14:52.726Z,87.85
2022-12-31T11:18:22.873Z,73.43
2022-12-31T11:21:41.408Z,86.28
2022-12-31T11:25:13.114Z,72.05
2022-12-31T11:28:33.493Z,64.50
2022-12-31T11:31:50.780Z,73.65
2022-12-31T11:35:33.452Z,63.20
2022-12-31T11:38:58.924Z,77.90
2022-12-31T11:42:27.283Z,67.30
2022-12-31T11:46:04.379Z,63.55
2022-12-31T11:49:27.753Z,69.90
2022-12-31T11:52:52.152Z,66.55
2022-12-31T11:56:17.403Z,67.50
2022-12-31T11:59:22.823Z,60.03
2022-12-31T12:02:43.680Z,62.55
2022-12-31T12:05:49.313Z,61.85
2022-12-31T12:09:07.359Z,72.10
2022-12-31T12:12:13.829Z,58.80
2022-12-31T12:15:27.736Z,56.83
2022-12-31T12:19:07.050Z,58.47
2022-12-31T12:22:20.234Z,58.67
2022-12-31T12:25:28.243Z,57.35
2022-12-31T12:28:46.513Z,56.45
2022-12-31T12:32:07.862Z,59.58
2022-12-31T12:35:15.381Z,67.88
2022-12-31T12:38:23.440Z,58.50
2022-12-31T12:41:29.109Z,61.97
2022-12-31T12:44:35.980Z,63.53
2022-12-31T12:47:46.682Z,62.03
2022-12-31T12:50:52.405Z,67.03
2022-12-31T12:54:13.188Z,62.83
2022-12-31T12:57:34.487Z,70.93
2022-12-31T13:01:01.673Z,67.75
2022-12-31T13:04:35.214Z,65.78
2022-12-31T13:07:50.090Z,73.35
2022-12-31T13:11:01.833Z,72.75
2022-12-31T13:14:28.311Z,68.43
2022-12-31T13:18:01.252Z,67.18
2022-12-31T13:21:42.021Z,61.05
2022-12-31T13:25:29.021Z,66.57
2022-12-31T13:28:35.983Z,66.50
2022-12-31T13:31:43.489Z,68.97
2022-12-31T13:34:55.840Z,71.32
2022-12-31T13:38:12.267Z,68.43
2022-12-31T13:41:19.613Z,75.82
2022-12-31T13:44:45.192Z,68.97
2022-12-31T13:47:56.952Z,66.80
2022-12-31T13:51:19.151Z,73.38
2022-12-31T13:54:41.701Z,69.47
2022-12-31T13:57:53.101Z,77.38
2022-12-31T14:01:33.656Z,78.65
2022-12-31T14:05:03.504Z,65.03
2022-12-31T14:08:10.191Z,85.93
2022-12-31T14:11:55.165Z,75.70
2022-12-31T14:15:11.801Z,74.60
2022-12-31T14:18:41.437Z,73.38
2022-12-31T14:22:07.127Z,80.95
2022-12-31T14:25:25.569Z,80.68
2022-12-31T14:28:38.340Z,70.57
2022-12-31T14:31:49.105Z,78.85
2022-12-31T14:35:19.113Z,77.38
2022-12-31T14:38:46.229Z,74.97
2022-12-31T14:42:17.503Z,76.43
2022-12-31T14:45:50.241Z,67.65
2022-12-31T14:49:02.984Z,75.75
2022-12-31T14:52:15.975Z,85.25
2022-12-31T14:55:25.584Z,74.28
2022-12-31T14:58:39.765Z,82.10
2022-12-31T15:01:45.784Z,68.25
2022-12-31T15:04:51.193Z,77.93
2022-12-31T15:08:10.456Z,69.47
2022-12-31T15:11:25.254Z,71.90
2022-12-31T15:14:55.853Z,68.13
2022-12-31T15:18:42.819Z,80.85
2022-12-31T15:21:55.153Z,70.63
2022-12-31T15:25:01.259Z,71.10
2022-12-31T15:28:26.635Z,78.35
2022-12-31T15:31:36.999Z,96.70
2022-12-31T15:34:42.566Z,75.50
2022-12-31T15:38:11.205Z,81.10
2022-12-31T15:41:19.120Z,74.15
2022-12-31T15:44:33.393Z,84.68
2022-12-31T15:47:46.519Z,82.75
2022-12-31T15:50:54.933Z,84.25
2022-12-31T15:54:02.810Z,79.13
2022-12-31T15:57:17.007Z,74.43
2022-12-31T16:00:24.046Z,78.22
2022-12-31T16:03:31.404Z,82.28
2022-12-31T16:06:38.883Z,85.75
2022-12-31T16:09:50.074Z,75.82
2022-12-31T16:12:58.166Z,76.60
2022-12-31T16:16:19.642Z,72.38
2022-12-31T16:19:36.515Z,72.07
2022-12-31T16:22:41.681Z,112.20
2022-12-31T16:25:47.255Z,110.70
2022-12-31T16:28:52.642Z,840.55
2022-12-31T16:31:58.260Z,450.30
2022-12-31T16:35:08.393Z,621.25
2022-12-31T16:38:19.223Z,623.42
2022-12-31T16:41:24.623Z,293.90
2022-12-31T16:44:30.982Z,486.13
2022-12-31T16:47:40.336Z,268.45
2022-12-31T16:50:53.914Z,170.38
2022-12-31T16:54:01.768Z,117.78
2022-12-31T16:57:11.184Z,318.40
2022-12-31T17:00:19.246Z,289.83
2022-12-31T17:03:28.051Z,292.17
2022-12-31T17:06:33.650Z,214.65
2022-12-31T17:09:39.929Z,157.15
2022-12-31T17:16:21.990Z,111.82
2022-12-31T17:19:58.368Z,115.55
2022-12-31T17:23:09.409Z,105.30
2022-12-31T17:26:32.670Z,101.13
2022-12-31T17:29:38.142Z,87.88
2022-12-31T17:32:45.680Z,82.43
2022-12-31T17:36:15.715Z,88.38
2022-12-31T17:39:23.837Z,97.40
2022-12-31T17:42:34.794Z,86.78
2022-12-31T17:45:43.228Z,86.95
2022-12-31T17:48:53.261Z,85.85
2022-12-31T17:51:58.874Z,92.00
2022-12-31T17:55:04.169Z,100.82
2022-12-31T17:58:18.931Z,102.07
2022-12-31T18:01:24.411Z,92.63
2022-12-31T18:04:29.991Z,97.13
2022-12-31T18:07:34.965Z,86.00
2022-12-31T18:10:43.339Z,85.43
2022-12-31T18:13:49.174Z,99.72
2022-12-31T18:16:54.325Z,97.70
2022-12-31T18:20:07.088Z,98.72
2022-12-31T18:23:20.395Z,95.88
2022-12-31T18:26:27.501Z,101.05
2022-12-31T18:29:32.845Z,99.85
2022-12-31T18:32:40.187Z,96.55
2022-12-31T18:39:11.064Z,88.05
2022-12-31T18:42:18.903Z,81.65
2022-12-31T18:45:25.106Z,93.80
2022-12-31T18:48:30.355Z,88.05
2022-12-31T18:51:36.306Z,83.45
2022-12-31T18:54:49.841Z,83.70
2022-12-31T18:57:55.691Z,89.82
2022-12-31T19:01:00.942Z,93.45
2022-12-31T19:04:19.930Z,92.68
2022-12-31T19:07:28.127Z,98.18
2022-12-31T19:10:34.587Z,98.68
2022-12-31T19:13:40.086Z,97.43
2022-12-31T19:16:45.939Z,210.25
2022-12-31T19:19:51.127Z,170.57
2022-12-31T19:22:57.515Z,106.97
2022-12-31T19:26:02.765Z,116.53
2022-12-31T19:29:22.666Z,103.18
2022-12-31T19:32:27.826Z,107.15
2022-12-31T19:35:33.127Z,92.32
2022-12-31T19:38:38.405Z,96.07
2022-12-31T19:41:44.245Z,92.85
2022-12-31T19:44:49.598Z,103.30
2022-12-31T19:47:56.308Z,160.43
2022-12-31T19:51:01.590Z,130.93
2022-12-31T19:54:07.066Z,106.63
2022-12-31T19:57:12.447Z,125.03
2022-12-31T20:00:19.088Z,174.43
2022-12-31T20:03:25.022Z,178.35
2022-12-31T20:06:30.530Z,163.73
2022-12-31T20:09:36.413Z,99.57
2022-12-31T20:12:44.624Z,100.30
2022-12-31T20:15:50.187Z,101.40
2022-12-31T20:18:55.872Z,95.40
2022-12-31T20:22:01.760Z,105.00
2022-12-31T20:25:07.172Z,102.72
2022-12-31T20:28:12.747Z,95.78
2022-12-31T20:31:21.752Z,105.03
2022-12-31T20:34:27.601Z,102.57
2022-12-31T20:37:32.484Z,106.35
2022-12-31T20:40:44.599Z,102.43
2022-12-31T20:43:52.419Z,105.90
2022-12-31T20:46:57.892Z,101.18
2022-12-31T20:50:12.265Z,96.13
2022-12-31T20:53:18.809Z,99.72
2022-12-31T20:56:26.705Z,107.13
2022-12-31T20:59:31.935Z,102.63
2022-12-31T21:02:42.772Z,90.43
2022-12-31T21:05:54.470Z,100.25
2022-12-31T21:09:02.018Z,112.72
2022-12-31T21:12:25.775Z,98.15
2022-12-31T21:15:31.023Z,96.55
2022-12-31T21:18:36.435Z,102.43
2022-12-31T21:21:42.712Z,104.13
2022-12-31T21:24:48.412Z,85.85
2022-12-31T21:27:53.983Z,90.70
2022-12-31T21:31:01.742Z,95.00
2022-12-31T21:34:06.695Z,94.72
2022-12-31T21:37:11.965Z,96.13
2022-12-31T21:40:18.120Z,115.53
2022-12-31T21:43:23.948Z,104.47
2022-12-31T21:46:30.045Z,88.32
2022-12-31T21:49:35.647Z,103.30
2022-12-31T21:52:41.604Z,103.00
2022-12-31T21:56:05.308Z,107.78
2022-12-31T21:59:29.218Z,95.15
2022-12-31T22:03:00.012Z,95.57
2022-12-31T22:06:12.350Z,88.97
2022-12-31T22:09:17.664Z,92.97
2022-12-31T22:12:22.938Z,93.28
2022-12-31T22:15:28.202Z,83.10
2022-12-31T22:18:38.942Z,85.45
2022-12-31T22:21:44.492Z,79.90
2022-12-31T22:24:49.978Z,74.97
2022-12-31T22:28:36.029Z,80.18
2022-12-31T22:31:26.784Z,73.60
2022-12-31T22:34:32.588Z,70.95
2022-12-31T22:41:03.367Z,71.43
2022-12-31T22:44:08.903Z,73.15
2022-12-31T22:47:14.083Z,80.65
2022-12-31T22:50:19.517Z,79.78
2022-12-31T22:53:25.211Z,73.75
2022-12-31T22:56:30.528Z,76.95
2022-12-31T22:59:36.208Z,77.13
2022-12-31T23:02:42.415Z,83.75
2022-12-31T23:05:52.739Z,71.95
2022-12-31T23:09:16.144Z,80.28
2022-12-31T23:12:22.279Z,72.38
2022-12-31T23:15:46.177Z,78.55
2022-12-31T23:19:10.072Z,87.70
2022-12-31T23:22:33.966Z,85.07
2022-12-31T23:25:45.249Z,92.28
2022-12-31T23:28:50.866Z,84.95
2022-12-31T23:31:56.340Z,99.40
2022-12-31T23:35:07.774Z,111.38
2022-12-31T23:38:17.732Z,129.65
2022-12-31T23:41:23.499Z,134.15
2022-12-31T23:44:29.219Z,159.20
2022-12-31T23:47:35.967Z,132.55
2022-12-31T23:50:41.521Z,129.15
2022-12-31T23:53:47.365Z,129.40
2022-12-31T23:56:53.156Z,116.05
2022-12-31T23:59:59.006Z,84.65
